RYR2495 LEBL-LEPA
Flight info
| Callsign | RYR2495 |
|---|---|
| Flight time | N/A |
| Altitude | 19000 |
| Route | LARPA N859 TOLSO |
| Aircraft | B738/M-V/N |
Departure
| Time | 2026-05-06 19:13 |
|---|---|
| Airport | Josep Tarradellas Barcelona-El Prat Airport (LEBL) |
Arrival
| Time | N/A |
|---|---|
| Airport | Palma de Mallorca Airport (LEPA) |
| Time | Latitude | Longitude | Altitude | Speed | Heading |
|---|---|---|---|---|---|
| 2026-05-06 18:48 | 41.29843 | 2.07047 | 24 ft | 0 kts | 155° |
| 2026-05-06 19:03 | 41.29842 | 2.07047 | 23 ft | 0 kts | 155° |
| 2026-05-06 19:03 | 41.29842 | 2.07048 | 23 ft | 0 kts | 155° |
| 2026-05-06 19:04 | 41.29834 | 2.07052 | 23 ft | 4 kts | 155° |
| 2026-05-06 19:04 | 41.29773 | 2.07046 | 23 ft | 16 kts | 224° |
| 2026-05-06 19:04 | 41.29699 | 2.06875 | 23 ft | 21 kts | 244° |
| 2026-05-06 19:04 | 41.29641 | 2.06706 | 23 ft | 19 kts | 245° |
| 2026-05-06 19:05 | 41.29582 | 2.06532 | 23 ft | 23 kts | 246° |
| 2026-05-06 19:05 | 41.29499 | 2.06295 | 23 ft | 31 kts | 244° |
| 2026-05-06 19:05 | 41.29409 | 2.06128 | 23 ft | 14 kts | 186° |
| 2026-05-06 19:05 | 41.29288 | 2.06154 | 23 ft | 12 kts | 155° |
| 2026-05-06 19:06 | 41.29280 | 2.06159 | 23 ft | 2 kts | 155° |
| 2026-05-06 19:06 | 41.29209 | 2.06202 | 23 ft | 20 kts | 155° |
| 2026-05-06 19:06 | 41.29060 | 2.06312 | 23 ft | 23 kts | 127° |
| 2026-05-06 19:06 | 41.29053 | 2.06492 | 23 ft | 18 kts | 63° |
| 2026-05-06 19:07 | 41.29118 | 2.06667 | 23 ft | 20 kts | 67° |
| 2026-05-06 19:07 | 41.29153 | 2.06857 | 23 ft | 20 kts | 123° |
| 2026-05-06 19:07 | 41.29155 | 2.06988 | 23 ft | 18 kts | 65° |
| 2026-05-06 19:07 | 41.29228 | 2.07210 | 23 ft | 29 kts | 64° |
| 2026-05-06 19:08 | 41.29311 | 2.07444 | 23 ft | 26 kts | 67° |
| 2026-05-06 19:08 | 41.29377 | 2.07658 | 23 ft | 25 kts | 67° |
| 2026-05-06 19:08 | 41.29456 | 2.07895 | 23 ft | 33 kts | 66° |
| 2026-05-06 19:08 | 41.29552 | 2.08181 | 23 ft | 27 kts | 67° |
| 2026-05-06 19:09 | 41.29482 | 2.08311 | 23 ft | 20 kts | 156° |
| 2026-05-06 19:09 | 41.29306 | 2.08416 | 23 ft | 30 kts | 155° |
| 2026-05-06 19:09 | 41.29114 | 2.08530 | 23 ft | 30 kts | 155° |
| 2026-05-06 19:09 | 41.28930 | 2.08650 | 23 ft | 28 kts | 154° |
| 2026-05-06 19:10 | 41.28867 | 2.08745 | 23 ft | 10 kts | 63° |
| 2026-05-06 19:10 | 41.28908 | 2.08860 | 23 ft | 20 kts | 66° |
| 2026-05-06 19:10 | 41.28988 | 2.09100 | 23 ft | 35 kts | 66° |
| 2026-05-06 19:10 | 41.29084 | 2.09378 | 23 ft | 32 kts | 65° |
| 2026-05-06 19:11 | 41.29178 | 2.09652 | 23 ft | 32 kts | 66° |
| 2026-05-06 19:11 | 41.29272 | 2.09913 | 23 ft | 29 kts | 57° |
| 2026-05-06 19:11 | 41.29359 | 2.10144 | 23 ft | 25 kts | 66° |
| 2026-05-06 19:11 | 41.29299 | 2.10290 | 23 ft | 18 kts | 152° |
| 2026-05-06 19:12 | 41.29201 | 2.10260 | 23 ft | 16 kts | 238° |
| 2026-05-06 19:12 | 41.29142 | 2.10095 | 23 ft | 41 kts | 245° |
| 2026-05-06 19:12 | 41.28897 | 2.09376 | 23 ft | 126 kts | 245° |
| 2026-05-06 19:12 | 41.28439 | 2.08032 | 103 ft | 185 kts | 244° |
| 2026-05-06 19:13 | 41.27928 | 2.06491 | 1143 ft | 179 kts | 244° |
| 2026-05-06 19:13 | 41.27304 | 2.05145 | 1937 ft | 182 kts | 227° |
| 2026-05-06 19:13 | 41.26305 | 2.04132 | 2702 ft | 179 kts | 204° |
| 2026-05-06 19:13 | 41.25164 | 2.03711 | 3483 ft | 176 kts | 185° |
| 2026-05-06 19:14 | 41.23906 | 2.03800 | 3962 ft | 191 kts | 169° |
| 2026-05-06 19:14 | 41.22551 | 2.04206 | 4375 ft | 210 kts | 168° |
| 2026-05-06 19:14 | 41.21074 | 2.04664 | 4784 ft | 232 kts | 168° |
| 2026-05-06 19:14 | 41.19409 | 2.05194 | 5170 ft | 262 kts | 167° |
| 2026-05-06 19:15 | 41.17599 | 2.05816 | 5995 ft | 269 kts | 168° |
| 2026-05-06 19:15 | 41.15802 | 2.06153 | 6627 ft | 259 kts | 183° |
| 2026-05-06 19:15 | 41.14111 | 2.05784 | 7432 ft | 250 kts | 199° |
| 2026-05-06 19:15 | 41.12513 | 2.04800 | 8152 ft | 260 kts | 213° |
| 2026-05-06 19:16 | 41.11006 | 2.03451 | 8855 ft | 272 kts | 216° |
| 2026-05-06 19:16 | 41.09426 | 2.01963 | 9583 ft | 283 kts | 217° |
| 2026-05-06 19:16 | 41.07885 | 2.00483 | 10750 ft | 275 kts | 218° |
| 2026-05-06 19:16 | 41.06382 | 1.99013 | 11884 ft | 268 kts | 219° |
| 2026-05-06 19:17 | 41.04808 | 1.97581 | 12378 ft | 285 kts | 213° |
| 2026-05-06 19:17 | 41.02995 | 1.96420 | 13081 ft | 296 kts | 201° |
| 2026-05-06 19:17 | 41.01002 | 1.95841 | 13855 ft | 304 kts | 186° |
| 2026-05-06 19:17 | 40.98833 | 1.96267 | 14009 ft | 337 kts | 160° |
| 2026-05-06 19:18 | 40.96800 | 1.98058 | 14311 ft | 360 kts | 140° |
| 2026-05-06 19:18 | 40.94906 | 2.00359 | 14500 ft | 382 kts | 140° |
| 2026-05-06 19:18 | 40.92891 | 2.02628 | 15155 ft | 386 kts | 143° |
| 2026-05-06 19:18 | 40.90792 | 2.04895 | 15696 ft | 395 kts | 143° |
| 2026-05-06 19:19 | 40.88686 | 2.07169 | 16493 ft | 395 kts | 143° |
| 2026-05-06 19:19 | 40.86540 | 2.09488 | 17061 ft | 401 kts | 144° |
| 2026-05-06 19:19 | 40.84377 | 2.11810 | 17723 ft | 404 kts | 144° |
| 2026-05-06 19:19 | 40.82185 | 2.14152 | 18333 ft | 408 kts | 144° |
| 2026-05-06 19:20 | 40.79988 | 2.16487 | 18864 ft | 410 kts | 144° |
| 2026-05-06 19:20 | 40.77762 | 2.18850 | 18921 ft | 414 kts | 144° |
| 2026-05-06 19:20 | 40.75539 | 2.21217 | 18939 ft | 412 kts | 144° |
| 2026-05-06 19:20 | 40.73320 | 2.23580 | 18942 ft | 410 kts | 145° |
| 2026-05-06 19:21 | 40.71091 | 2.25943 | 18940 ft | 409 kts | 145° |
| 2026-05-06 19:21 | 40.68893 | 2.28271 | 18940 ft | 409 kts | 145° |
| 2026-05-06 19:21 | 40.66673 | 2.30622 | 18939 ft | 409 kts | 145° |
| 2026-05-06 19:21 | 40.64384 | 2.32838 | 18938 ft | 406 kts | 151° |
| 2026-05-06 19:22 | 40.61929 | 2.34510 | 18928 ft | 398 kts | 167° |
| 2026-05-06 19:22 | 40.59223 | 2.35021 | 18958 ft | 388 kts | 184° |
| 2026-05-06 19:22 | 40.56550 | 2.34968 | 18929 ft | 388 kts | 185° |
| 2026-05-06 19:22 | 40.53871 | 2.34962 | 18934 ft | 389 kts | 183° |
| 2026-05-06 19:23 | 40.51302 | 2.35046 | 18940 ft | 389 kts | 182° |
| 2026-05-06 19:23 | 40.48601 | 2.35155 | 18939 ft | 389 kts | 182° |
| 2026-05-06 19:23 | 40.45910 | 2.35261 | 18939 ft | 389 kts | 182° |
| 2026-05-06 19:23 | 40.43218 | 2.35374 | 18939 ft | 389 kts | 182° |
| 2026-05-06 19:24 | 40.40600 | 2.35491 | 18939 ft | 389 kts | 182° |
| 2026-05-06 19:24 | 40.37913 | 2.35615 | 18939 ft | 389 kts | 182° |
| 2026-05-06 19:24 | 40.35213 | 2.35742 | 18939 ft | 389 kts | 182° |
| 2026-05-06 19:24 | 40.32496 | 2.35871 | 18939 ft | 388 kts | 182° |
| 2026-05-06 19:25 | 40.29807 | 2.35999 | 18933 ft | 386 kts | 182° |
| 2026-05-06 19:25 | 40.27151 | 2.36128 | 18691 ft | 380 kts | 182° |
| 2026-05-06 19:25 | 40.24557 | 2.36256 | 18387 ft | 369 kts | 182° |
| 2026-05-06 19:25 | 40.22012 | 2.36378 | 17864 ft | 363 kts | 182° |
| 2026-05-06 19:26 | 40.19513 | 2.36494 | 17299 ft | 359 kts | 182° |
| 2026-05-06 19:26 | 40.17037 | 2.36608 | 16729 ft | 356 kts | 182° |
| 2026-05-06 19:26 | 40.14748 | 2.36716 | 16197 ft | 353 kts | 182° |
| 2026-05-06 19:26 | 40.12299 | 2.36836 | 15628 ft | 350 kts | 181° |
| 2026-05-06 19:27 | 40.09884 | 2.36958 | 15064 ft | 347 kts | 181° |
| 2026-05-06 19:27 | 40.07518 | 2.37078 | 14509 ft | 344 kts | 181° |
| 2026-05-06 19:27 | 40.05135 | 2.37195 | 13949 ft | 342 kts | 181° |
| 2026-05-06 19:27 | 40.02767 | 2.37307 | 13388 ft | 339 kts | 180° |
| 2026-05-06 19:28 | 40.00435 | 2.37407 | 12843 ft | 337 kts | 180° |
| 2026-05-06 19:28 | 39.98110 | 2.37498 | 12284 ft | 334 kts | 180° |
| 2026-05-06 19:28 | 39.95819 | 2.37595 | 11732 ft | 333 kts | 180° |
| 2026-05-06 19:28 | 39.93530 | 2.37717 | 11191 ft | 331 kts | 179° |
| 2026-05-06 19:29 | 39.91228 | 2.37847 | 10721 ft | 326 kts | 179° |
| 2026-05-06 19:29 | 39.89750 | 2.37923 | 10527 ft | 319 kts | 179° |
| 2026-05-06 19:29 | 39.86877 | 2.38061 | 10321 ft | 301 kts | 179° |
| 2026-05-06 19:29 | 39.84825 | 2.38161 | 10184 ft | 288 kts | 179° |
| 2026-05-06 19:30 | 39.82857 | 2.38257 | 9941 ft | 280 kts | 179° |
| 2026-05-06 19:30 | 39.80927 | 2.38347 | 9589 ft | 278 kts | 179° |
| 2026-05-06 19:30 | 39.79022 | 2.38439 | 9241 ft | 275 kts | 179° |
| 2026-05-06 19:30 | 39.77130 | 2.38530 | 8895 ft | 273 kts | 179° |
| 2026-05-06 19:31 | 39.75226 | 2.38620 | 8548 ft | 270 kts | 179° |
| 2026-05-06 19:31 | 39.73370 | 2.38709 | 8211 ft | 268 kts | 179° |
| 2026-05-06 19:31 | 39.69704 | 2.38898 | 7530 ft | 264 kts | 178° |
| 2026-05-06 19:32 | 39.67844 | 2.39024 | 7132 ft | 268 kts | 178° |
| 2026-05-06 19:32 | 39.65987 | 2.39149 | 6733 ft | 269 kts | 178° |
| 2026-05-06 19:32 | 39.64133 | 2.39301 | 6334 ft | 268 kts | 176° |
| 2026-05-06 19:32 | 39.62278 | 2.39460 | 5978 ft | 266 kts | 177° |
| 2026-05-06 19:33 | 39.60479 | 2.39612 | 5954 ft | 259 kts | 177° |
| 2026-05-06 19:33 | 39.58672 | 2.39765 | 5953 ft | 263 kts | 177° |
| 2026-05-06 19:33 | 39.56836 | 2.39921 | 5880 ft | 265 kts | 177° |
| 2026-05-06 19:33 | 39.55101 | 2.40067 | 5757 ft | 263 kts | 176° |
| 2026-05-06 19:34 | 39.53278 | 2.40218 | 5630 ft | 262 kts | 176° |
| 2026-05-06 19:34 | 39.51459 | 2.40360 | 5505 ft | 261 kts | 176° |
| 2026-05-06 19:34 | 39.49651 | 2.40495 | 5246 ft | 264 kts | 177° |
| 2026-05-06 19:34 | 39.47822 | 2.40630 | 4865 ft | 263 kts | 176° |
| 2026-05-06 19:35 | 39.46029 | 2.40755 | 4495 ft | 262 kts | 176° |
| 2026-05-06 19:35 | 39.44233 | 2.41001 | 4115 ft | 261 kts | 165° |
| 2026-05-06 19:35 | 39.42643 | 2.42080 | 3738 ft | 259 kts | 136° |
| 2026-05-06 19:35 | 39.41695 | 2.43971 | 3612 ft | 249 kts | 107° |
| 2026-05-06 19:36 | 39.41596 | 2.46192 | 3529 ft | 252 kts | 77° |
| 2026-05-06 19:36 | 39.42345 | 2.48209 | 3342 ft | 247 kts | 49° |
| 2026-05-06 19:36 | 39.43541 | 2.49696 | 3197 ft | 229 kts | 43° |
| 2026-05-06 19:36 | 39.44653 | 2.51063 | 3148 ft | 216 kts | 46° |
| 2026-05-06 19:37 | 39.45663 | 2.52518 | 3090 ft | 218 kts | 51° |
| 2026-05-06 19:37 | 39.46521 | 2.54000 | 3009 ft | 210 kts | 56° |
| 2026-05-06 19:37 | 39.47317 | 2.55546 | 2804 ft | 200 kts | 57° |
| 2026-05-06 19:37 | 39.48036 | 2.57005 | 2552 ft | 187 kts | 58° |
| 2026-05-06 19:38 | 39.48692 | 2.58381 | 2311 ft | 173 kts | 58° |
| 2026-05-06 19:38 | 39.49314 | 2.59687 | 2107 ft | 163 kts | 58° |
| 2026-05-06 19:38 | 39.49901 | 2.60923 | 1871 ft | 161 kts | 58° |
| 2026-05-06 19:38 | 39.50480 | 2.62142 | 1671 ft | 158 kts | 58° |
| 2026-05-06 19:39 | 39.51047 | 2.63341 | 1442 ft | 154 kts | 57° |
| 2026-05-06 19:39 | 39.51328 | 2.63933 | 1331 ft | 153 kts | 57° |